sensor_id;sensor_type;location;lat;lon;timestamp;temperature;humidity
37956;DHT22;23776;51.592;7.180;2022-09-09T00:01:14;15.40;70.00
37956;DHT22;23776;51.592;7.180;2022-09-09T00:03:50;15.40;72.30
37956;DHT22;23776;51.592;7.180;2022-09-09T00:06:24;15.40;75.30
37956;DHT22;23776;51.592;7.180;2022-09-09T00:11:44;15.50;81.20
37956;DHT22;23776;51.592;7.180;2022-09-09T00:14:21;15.50;78.70
37956;DHT22;23776;51.592;7.180;2022-09-09T00:16:54;15.60;82.20
37956;DHT22;23776;51.592;7.180;2022-09-09T00:24:46;15.60;84.10
37956;DHT22;23776;51.592;7.180;2022-09-09T00:32:37;15.70;85.90
37956;DHT22;23776;51.592;7.180;2022-09-09T00:35:16;15.70;84.70
37956;DHT22;23776;51.592;7.180;2022-09-09T00:37:44;15.60;82.90
37956;DHT22;23776;51.592;7.180;2022-09-09T00:40:32;15.60;82.50
37956;DHT22;23776;51.592;7.180;2022-09-09T00:43:43;15.70;84.60
37956;DHT22;23776;51.592;7.180;2022-09-09T00:57:14;15.50;77.80
37956;DHT22;23776;51.592;7.180;2022-09-09T00:59:47;15.50;78.00
37956;DHT22;23776;51.592;7.180;2022-09-09T01:02:26;15.40;79.10
37956;DHT22;23776;51.592;7.180;2022-09-09T01:04:53;15.40;81.00
37956;DHT22;23776;51.592;7.180;2022-09-09T01:07:20;15.40;80.40
37956;DHT22;23776;51.592;7.180;2022-09-09T01:09:55;15.50;79.80
37956;DHT22;23776;51.592;7.180;2022-09-09T01:12:40;15.40;78.30
37956;DHT22;23776;51.592;7.180;2022-09-09T01:15:26;15.40;78.30
37956;DHT22;23776;51.592;7.180;2022-09-09T01:18:43;15.40;79.10
37956;DHT22;23776;51.592;7.180;2022-09-09T01:21:44;15.40;81.00
37956;DHT22;23776;51.592;7.180;2022-09-09T01:24:20;15.40;81.50
37956;DHT22;23776;51.592;7.180;2022-09-09T01:26:49;15.40;81.60
37956;DHT22;23776;51.592;7.180;2022-09-09T01:29:17;15.50;80.90
37956;DHT22;23776;51.592;7.180;2022-09-09T01:32:01;15.50;82.10
37956;DHT22;23776;51.592;7.180;2022-09-09T01:34:31;15.50;81.10
37956;DHT22;23776;51.592;7.180;2022-09-09T01:37:04;15.50;82.50
37956;DHT22;23776;51.592;7.180;2022-09-09T01:39:35;15.60;83.20
37956;DHT22;23776;51.592;7.180;2022-09-09T01:42:02;15.60;84.10
37956;DHT22;23776;51.592;7.180;2022-09-09T01:44:30;15.60;82.70
37956;DHT22;23776;51.592;7.180;2022-09-09T01:46:56;15.60;80.10
37956;DHT22;23776;51.592;7.180;2022-09-09T01:49:22;15.60;82.40
37956;DHT22;23776;51.592;7.180;2022-09-09T01:51:53;15.60;82.50
37956;DHT22;23776;51.592;7.180;2022-09-09T01:54:23;15.60;79.40
37956;DHT22;23776;51.592;7.180;2022-09-09T01:57:18;15.60;80.40
37956;DHT22;23776;51.592;7.180;2022-09-09T02:02:32;15.60;82.70
37956;DHT22;23776;51.592;7.180;2022-09-09T02:05:16;15.60;82.20
37956;DHT22;23776;51.592;7.180;2022-09-09T02:07:47;15.70;82.30
37956;DHT22;23776;51.592;7.180;2022-09-09T02:10:29;15.60;82.80
37956;DHT22;23776;51.592;7.180;2022-09-09T02:13:02;15.60;82.60
37956;DHT22;23776;51.592;7.180;2022-09-09T02:18:18;15.60;85.40
37956;DHT22;23776;51.592;7.180;2022-09-09T02:20:46;15.60;83.80
37956;DHT22;23776;51.592;7.180;2022-09-09T02:23:12;15.70;82.50
37956;DHT22;23776;51.592;7.180;2022-09-09T02:25:40;15.70;83.80
37956;DHT22;23776;51.592;7.180;2022-09-09T02:28:08;15.70;83.80
37956;DHT22;23776;51.592;7.180;2022-09-09T02:30:37;15.70;83.20
37956;DHT22;23776;51.592;7.180;2022-09-09T02:33:04;15.70;81.60
37956;DHT22;23776;51.592;7.180;2022-09-09T02:35:32;15.70;81.40
37956;DHT22;23776;51.592;7.180;2022-09-09T02:38:04;15.80;80.90
37956;DHT22;23776;51.592;7.180;2022-09-09T02:40:32;15.80;81.00
37956;DHT22;23776;51.592;7.180;2022-09-09T02:42:57;15.70;81.60
37956;DHT22;23776;51.592;7.180;2022-09-09T02:45:29;15.70;82.20
37956;DHT22;23776;51.592;7.180;2022-09-09T02:48:26;15.80;80.90
37956;DHT22;23776;51.592;7.180;2022-09-09T02:51:17;15.80;80.80
37956;DHT22;23776;51.592;7.180;2022-09-09T02:54:04;15.80;79.60
37956;DHT22;23776;51.592;7.180;2022-09-09T02:56:39;15.90;79.80
37956;DHT22;23776;51.592;7.180;2022-09-09T02:59:05;15.90;80.60
37956;DHT22;23776;51.592;7.180;2022-09-09T03:01:31;15.90;80.20
37956;DHT22;23776;51.592;7.180;2022-09-09T03:03:57;16.00;81.60
37956;DHT22;23776;51.592;7.180;2022-09-09T03:06:22;16.00;81.40
37956;DHT22;23776;51.592;7.180;2022-09-09T03:08:48;16.10;80.80
37956;DHT22;23776;51.592;7.180;2022-09-09T03:11:15;16.10;80.70
37956;DHT22;23776;51.592;7.180;2022-09-09T03:13:41;16.10;80.90
37956;DHT22;23776;51.592;7.180;2022-09-09T03:16:06;16.10;79.90
37956;DHT22;23776;51.592;7.180;2022-09-09T03:18:32;16.10;77.40
37956;DHT22;23776;51.592;7.180;2022-09-09T03:21:00;16.20;75.90
37956;DHT22;23776;51.592;7.180;2022-09-09T03:23:26;16.20;75.10
37956;DHT22;23776;51.592;7.180;2022-09-09T03:25:51;16.20;74.30
37956;DHT22;23776;51.592;7.180;2022-09-09T03:28:18;16.10;74.70
37956;DHT22;23776;51.592;7.180;2022-09-09T03:30:44;16.20;77.00
37956;DHT22;23776;51.592;7.180;2022-09-09T03:33:09;16.10;77.60
37956;DHT22;23776;51.592;7.180;2022-09-09T03:35:35;16.10;77.70
37956;DHT22;23776;51.592;7.180;2022-09-09T03:38:01;16.00;78.30
37956;DHT22;23776;51.592;7.180;2022-09-09T03:40:27;16.00;79.50
37956;DHT22;23776;51.592;7.180;2022-09-09T03:42:52;16.00;80.90
37956;DHT22;23776;51.592;7.180;2022-09-09T03:45:18;16.00;80.90
37956;DHT22;23776;51.592;7.180;2022-09-09T03:47:43;15.90;80.60
37956;DHT22;23776;51.592;7.180;2022-09-09T03:50:10;15.90;79.50
37956;DHT22;23776;51.592;7.180;2022-09-09T03:52:38;15.90;80.70
37956;DHT22;23776;51.592;7.180;2022-09-09T03:55:05;15.80;82.70
37956;DHT22;23776;51.592;7.180;2022-09-09T03:57:31;15.80;83.30
37956;DHT22;23776;51.592;7.180;2022-09-09T03:59:57;15.80;83.30
37956;DHT22;23776;51.592;7.180;2022-09-09T04:02:23;15.80;82.70
37956;DHT22;23776;51.592;7.180;2022-09-09T04:04:49;15.80;82.90
37956;DHT22;23776;51.592;7.180;2022-09-09T04:07:14;15.80;81.80
37956;DHT22;23776;51.592;7.180;2022-09-09T04:09:40;15.80;82.60
37956;DHT22;23776;51.592;7.180;2022-09-09T04:12:06;15.80;82.60
37956;DHT22;23776;51.592;7.180;2022-09-09T04:14:32;15.80;83.80
37956;DHT22;23776;51.592;7.180;2022-09-09T04:16:58;15.70;84.80
37956;DHT22;23776;51.592;7.180;2022-09-09T04:19:25;15.70;84.50
37956;DHT22;23776;51.592;7.180;2022-09-09T04:21:50;15.80;81.40
37956;DHT22;23776;51.592;7.180;2022-09-09T04:24:17;15.80;81.70
37956;DHT22;23776;51.592;7.180;2022-09-09T04:26:43;15.70;81.10
37956;DHT22;23776;51.592;7.180;2022-09-09T04:29:09;15.70;83.60
37956;DHT22;23776;51.592;7.180;2022-09-09T04:31:35;15.70;82.50
37956;DHT22;23776;51.592;7.180;2022-09-09T04:34:01;15.70;83.10
37956;DHT22;23776;51.592;7.180;2022-09-09T04:36:32;15.70;83.70
37956;DHT22;23776;51.592;7.180;2022-09-09T04:38:57;15.70;84.10
37956;DHT22;23776;51.592;7.180;2022-09-09T04:41:23;15.70;84.60
37956;DHT22;23776;51.592;7.180;2022-09-09T04:43:49;15.70;85.70
37956;DHT22;23776;51.592;7.180;2022-09-09T04:46:15;15.70;86.00
37956;DHT22;23776;51.592;7.180;2022-09-09T04:48:43;15.80;87.70
37956;DHT22;23776;51.592;7.180;2022-09-09T04:51:11;15.80;87.40
37956;DHT22;23776;51.592;7.180;2022-09-09T04:53:37;15.80;86.80
37956;DHT22;23776;51.592;7.180;2022-09-09T04:56:06;15.80;85.90
37956;DHT22;23776;51.592;7.180;2022-09-09T04:58:32;15.80;85.90
37956;DHT22;23776;51.592;7.180;2022-09-09T05:01:17;15.80;85.30
37956;DHT22;23776;51.592;7.180;2022-09-09T05:03:43;15.80;84.90
37956;DHT22;23776;51.592;7.180;2022-09-09T05:06:18;15.80;84.60
37956;DHT22;23776;51.592;7.180;2022-09-09T05:08:44;15.80;85.00
37956;DHT22;23776;51.592;7.180;2022-09-09T05:11:30;15.90;83.80
37956;DHT22;23776;51.592;7.180;2022-09-09T05:13:57;15.90;82.30
37956;DHT22;23776;51.592;7.180;2022-09-09T05:16:23;15.90;82.40
37956;DHT22;23776;51.592;7.180;2022-09-09T05:18:49;16.00;82.20
37956;DHT22;23776;51.592;7.180;2022-09-09T05:21:17;16.00;81.50
37956;DHT22;23776;51.592;7.180;2022-09-09T05:23:44;16.10;81.60
37956;DHT22;23776;51.592;7.180;2022-09-09T05:26:16;16.10;80.50
37956;DHT22;23776;51.592;7.180;2022-09-09T05:28:42;16.20;79.10
37956;DHT22;23776;51.592;7.180;2022-09-09T05:31:10;16.20;75.90
37956;DHT22;23776;51.592;7.180;2022-09-09T05:33:38;16.20;75.80
37956;DHT22;23776;51.592;7.180;2022-09-09T05:36:07;16.20;74.40
37956;DHT22;23776;51.592;7.180;2022-09-09T05:38:34;16.20;75.10
37956;DHT22;23776;51.592;7.180;2022-09-09T05:41:02;16.20;76.30
37956;DHT22;23776;51.592;7.180;2022-09-09T05:43:28;17.10;73.10
37956;DHT22;23776;51.592;7.180;2022-09-09T05:48:31;16.30;73.50
37956;DHT22;23776;51.592;7.180;2022-09-09T05:50:58;16.30;71.70
37956;DHT22;23776;51.592;7.180;2022-09-09T05:53:24;16.40;71.60
37956;DHT22;23776;51.592;7.180;2022-09-09T05:55:50;16.40;71.00
37956;DHT22;23776;51.592;7.180;2022-09-09T05:58:16;16.40;66.00
37956;DHT22;23776;51.592;7.180;2022-09-09T06:00:42;16.50;64.50
37956;DHT22;23776;51.592;7.180;2022-09-09T06:03:11;16.50;66.70
37956;DHT22;23776;51.592;7.180;2022-09-09T06:05:36;16.60;64.10
37956;DHT22;23776;51.592;7.180;2022-09-09T06:08:03;16.60;64.00
37956;DHT22;23776;51.592;7.180;2022-09-09T06:10:28;16.60;63.00
37956;DHT22;23776;51.592;7.180;2022-09-09T06:12:54;16.60;62.10
37956;DHT22;23776;51.592;7.180;2022-09-09T06:15:20;16.50;62.50
37956;DHT22;23776;51.592;7.180;2022-09-09T06:17:45;16.60;60.80
37956;DHT22;23776;51.592;7.180;2022-09-09T06:20:11;16.60;62.10
37956;DHT22;23776;51.592;7.180;2022-09-09T06:22:40;16.70;58.90
37956;DHT22;23776;51.592;7.180;2022-09-09T06:25:07;16.70;54.60
37956;DHT22;23776;51.592;7.180;2022-09-09T06:27:33;16.80;54.40
37956;DHT22;23776;51.592;7.180;2022-09-09T06:29:58;16.80;54.70
37956;DHT22;23776;51.592;7.180;2022-09-09T06:32:24;16.90;52.60
37956;DHT22;23776;51.592;7.180;2022-09-09T06:34:50;16.90;50.60
37956;DHT22;23776;51.592;7.180;2022-09-09T06:37:15;16.90;48.30
37956;DHT22;23776;51.592;7.180;2022-09-09T06:39:41;17.00;46.00
37956;DHT22;23776;51.592;7.180;2022-09-09T06:42:07;17.10;44.10
37956;DHT22;23776;51.592;7.180;2022-09-09T06:44:34;16.80;40.00
37956;DHT22;23776;51.592;7.180;2022-09-09T06:47:00;17.20;35.20
37956;DHT22;23776;51.592;7.180;2022-09-09T06:49:25;17.20;33.60
37956;DHT22;23776;51.592;7.180;2022-09-09T06:51:51;17.30;35.80
37956;DHT22;23776;51.592;7.180;2022-09-09T06:54:17;17.30;36.80
37956;DHT22;23776;51.592;7.180;2022-09-09T06:56:43;17.40;28.90
37956;DHT22;23776;51.592;7.180;2022-09-09T06:59:11;17.50;27.60
37956;DHT22;23776;51.592;7.180;2022-09-09T07:01:42;17.60;26.90
37956;DHT22;23776;51.592;7.180;2022-09-09T07:04:12;17.60;18.30
37956;DHT22;23776;51.592;7.180;2022-09-09T07:06:41;17.70;17.20
37956;DHT22;23776;51.592;7.180;2022-09-09T07:09:11;17.70;18.60
37956;DHT22;23776;51.592;7.180;2022-09-09T07:11:39;17.70;20.70
37956;DHT22;23776;51.592;7.180;2022-09-09T07:14:06;17.80;22.80
37956;DHT22;23776;51.592;7.180;2022-09-09T07:16:33;17.90;8.20
37956;DHT22;23776;51.592;7.180;2022-09-09T07:18:58;17.90;3.90
37956;DHT22;23776;51.592;7.180;2022-09-09T07:21:26;17.90;1.40
37956;DHT22;23776;51.592;7.180;2022-09-09T07:23:53;17.90;1.20
37956;DHT22;23776;51.592;7.180;2022-09-09T07:26:22;18.00;1.00
37956;DHT22;23776;51.592;7.180;2022-09-09T07:28:48;18.00;1.00
37956;DHT22;23776;51.592;7.180;2022-09-09T07:31:29;18.00;1.00
37956;DHT22;23776;51.592;7.180;2022-09-09T07:33:56;18.10;1.00
37956;DHT22;23776;51.592;7.180;2022-09-09T07:36:24;18.10;1.00
37956;DHT22;23776;51.592;7.180;2022-09-09T07:38:53;18.20;1.00
37956;DHT22;23776;51.592;7.180;2022-09-09T07:41:22;18.40;1.00
37956;DHT22;23776;51.592;7.180;2022-09-09T07:43:50;18.40;1.00
37956;DHT22;23776;51.592;7.180;2022-09-09T07:46:18;18.50;1.00
37956;DHT22;23776;51.592;7.180;2022-09-09T07:48:50;18.60;1.00
37956;DHT22;23776;51.592;7.180;2022-09-09T07:51:19;18.70;1.00
37956;DHT22;23776;51.592;7.180;2022-09-09T07:53:51;18.80;1.00
37956;DHT22;23776;51.592;7.180;2022-09-09T07:56:18;18.90;1.00
37956;DHT22;23776;51.592;7.180;2022-09-09T07:58:47;18.90;1.00
37956;DHT22;23776;51.592;7.180;2022-09-09T08:01:16;18.80;1.00
37956;DHT22;23776;51.592;7.180;2022-09-09T08:03:44;18.80;1.00
37956;DHT22;23776;51.592;7.180;2022-09-09T08:06:11;18.80;1.00
37956;DHT22;23776;51.592;7.180;2022-09-09T08:08:38;18.90;1.00
37956;DHT22;23776;51.592;7.180;2022-09-09T08:11:14;19.00;1.00
37956;DHT22;23776;51.592;7.180;2022-09-09T08:13:42;18.90;1.00
37956;DHT22;23776;51.592;7.180;2022-09-09T08:16:14;19.00;1.00
37956;DHT22;23776;51.592;7.180;2022-09-09T08:18:40;19.10;99.90
37956;DHT22;23776;51.592;7.180;2022-09-09T08:21:10;19.10;99.90
37956;DHT22;23776;51.592;7.180;2022-09-09T08:23:40;19.10;99.90
37956;DHT22;23776;51.592;7.180;2022-09-09T08:26:11;19.10;99.90
37956;DHT22;23776;51.592;7.180;2022-09-09T08:28:38;19.20;99.90
37956;DHT22;23776;51.592;7.180;2022-09-09T08:31:16;19.20;99.90
37956;DHT22;23776;51.592;7.180;2022-09-09T08:33:43;19.20;99.90
37956;DHT22;23776;51.592;7.180;2022-09-09T08:36:13;19.10;93.80
37956;DHT22;23776;51.592;7.180;2022-09-09T08:38:41;19.20;99.90
37956;DHT22;23776;51.592;7.180;2022-09-09T08:57:50;19.90;99.90
37956;DHT22;23776;51.592;7.180;2022-09-09T09:00:18;20.00;71.00
37956;DHT22;23776;51.592;7.180;2022-09-09T09:02:54;20.10;99.90
37956;DHT22;23776;51.592;7.180;2022-09-09T09:05:25;20.20;99.90
37956;DHT22;23776;51.592;7.180;2022-09-09T09:07:55;20.30;99.90
37956;DHT22;23776;51.592;7.180;2022-09-09T09:13:20;20.30;99.90
37956;DHT22;23776;51.592;7.180;2022-09-09T09:15:48;20.40;99.90
37956;DHT22;23776;51.592;7.180;2022-09-09T09:18:17;20.60;99.90
37956;DHT22;23776;51.592;7.180;2022-09-09T09:23:45;20.70;57.00
37956;DHT22;23776;51.592;7.180;2022-09-09T09:26:14;22.30;99.90
37956;DHT22;23776;51.592;7.180;2022-09-09T09:28:40;20.90;1.00
37956;DHT22;23776;51.592;7.180;2022-09-09T09:31:09;20.80;99.90
37956;DHT22;23776;51.592;7.180;2022-09-09T09:33:49;20.90;99.90
37956;DHT22;23776;51.592;7.180;2022-09-09T09:36:15;20.90;1.00
37956;DHT22;23776;51.592;7.180;2022-09-09T09:38:59;21.10;99.90
37956;DHT22;23776;51.592;7.180;2022-09-09T09:41:31;21.10;99.90
37956;DHT22;23776;51.592;7.180;2022-09-09T09:43:56;21.20;99.90
37956;DHT22;23776;51.592;7.180;2022-09-09T09:46:24;21.30;1.00
37956;DHT22;23776;51.592;7.180;2022-09-09T09:49:01;21.30;1.00
37956;DHT22;23776;51.592;7.180;2022-09-09T09:51:29;21.30;1.00
37956;DHT22;23776;51.592;7.180;2022-09-09T09:54:19;21.30;99.90
37956;DHT22;23776;51.592;7.180;2022-09-09T09:56:47;21.40;99.90
37956;DHT22;23776;51.592;7.180;2022-09-09T10:01:54;21.50;99.90
37956;DHT22;23776;51.592;7.180;2022-09-09T10:04:22;21.60;99.90
37956;DHT22;23776;51.592;7.180;2022-09-09T10:06:52;21.70;99.90
37956;DHT22;23776;51.592;7.180;2022-09-09T10:12:00;21.70;99.90
37956;DHT22;23776;51.592;7.180;2022-09-09T10:24:48;21.20;99.90
37956;DHT22;23776;51.592;7.180;2022-09-09T10:27:20;21.30;99.90
37956;DHT22;23776;51.592;7.180;2022-09-09T10:35:35;21.30;99.90
37956;DHT22;23776;51.592;7.180;2022-09-09T10:49:03;21.40;99.90
37956;DHT22;23776;51.592;7.180;2022-09-09T10:57:34;22.10;1.00
37956;DHT22;23776;51.592;7.180;2022-09-09T11:00:10;22.30;99.90
37956;DHT22;23776;51.592;7.180;2022-09-09T11:02:40;22.40;99.90
37956;DHT22;23776;51.592;7.180;2022-09-09T11:08:05;22.40;99.90
37956;DHT22;23776;51.592;7.180;2022-09-09T11:10:40;22.20;93.00
37956;DHT22;23776;51.592;7.180;2022-09-09T11:19:33;22.10;73.80
37956;DHT22;23776;51.592;7.180;2022-09-09T11:22:19;21.90;92.10
37956;DHT22;23776;51.592;7.180;2022-09-09T11:25:05;21.80;99.90
37956;DHT22;23776;51.592;7.180;2022-09-09T11:27:40;21.80;99.90
37956;DHT22;23776;51.592;7.180;2022-09-09T11:38:26;21.60;99.90
37956;DHT22;23776;51.592;7.180;2022-09-09T11:41:01;21.60;99.90
37956;DHT22;23776;51.592;7.180;2022-09-09T11:43:37;21.50;99.90
37956;DHT22;23776;51.592;7.180;2022-09-09T11:46:04;21.40;99.90
37956;DHT22;23776;51.592;7.180;2022-09-09T11:48:39;21.50;99.90
37956;DHT22;23776;51.592;7.180;2022-09-09T11:51:12;21.60;99.90
37956;DHT22;23776;51.592;7.180;2022-09-09T11:53:53;21.90;99.90
37956;DHT22;23776;51.592;7.180;2022-09-09T11:56:41;22.50;76.20
37956;DHT22;23776;51.592;7.180;2022-09-09T11:59:28;22.90;39.50
37956;DHT22;23776;51.592;7.180;2022-09-09T12:02:00;23.00;1.00
37956;DHT22;23776;51.592;7.180;2022-09-09T12:04:35;22.70;1.00
37956;DHT22;23776;51.592;7.180;2022-09-09T12:07:27;22.50;1.00
37956;DHT22;23776;51.592;7.180;2022-09-09T12:12:30;22.00;3.10
37956;DHT22;23776;51.592;7.180;2022-09-09T12:17:45;21.80;51.40
37956;DHT22;23776;51.592;7.180;2022-09-09T12:20:18;21.60;99.90
37956;DHT22;23776;51.592;7.180;2022-09-09T12:28:30;21.10;99.90
37956;DHT22;23776;51.592;7.180;2022-09-09T12:33:37;20.70;99.90
37956;DHT22;23776;51.592;7.180;2022-09-09T12:36:03;20.90;53.80
37956;DHT22;23776;51.592;7.180;2022-09-09T12:38:36;21.10;1.00
37956;DHT22;23776;51.592;7.180;2022-09-09T12:41:02;21.70;1.00
37956;DHT22;23776;51.592;7.180;2022-09-09T12:43:29;22.50;99.90
37956;DHT22;23776;51.592;7.180;2022-09-09T12:46:09;23.30;99.90
37956;DHT22;23776;51.592;7.180;2022-09-09T12:48:40;23.70;1.00
37956;DHT22;23776;51.592;7.180;2022-09-09T12:51:24;23.60;1.00
37956;DHT22;23776;51.592;7.180;2022-09-09T12:53:51;23.00;1.00
37956;DHT22;23776;51.592;7.180;2022-09-09T12:56:25;22.60;1.00
37956;DHT22;23776;51.592;7.180;2022-09-09T12:58:53;22.10;1.00
37956;DHT22;23776;51.592;7.180;2022-09-09T13:01:25;21.90;28.10
37956;DHT22;23776;51.592;7.180;2022-09-09T13:03:51;22.00;28.50
37956;DHT22;23776;51.592;7.180;2022-09-09T13:08:49;22.90;1.00
37956;DHT22;23776;51.592;7.180;2022-09-09T13:11:26;23.80;1.00
37956;DHT22;23776;51.592;7.180;2022-09-09T13:13:55;24.80;99.90
37956;DHT22;23776;51.592;7.180;2022-09-09T13:16:33;25.00;99.90
37956;DHT22;23776;51.592;7.180;2022-09-09T13:19:01;24.40;99.90
37956;DHT22;23776;51.592;7.180;2022-09-09T13:21:36;23.80;99.90
37956;DHT22;23776;51.592;7.180;2022-09-09T13:24:04;23.20;99.90
37956;DHT22;23776;51.592;7.180;2022-09-09T13:26:34;22.60;1.00
37956;DHT22;23776;51.592;7.180;2022-09-09T13:29:17;22.20;1.00
37956;DHT22;23776;51.592;7.180;2022-09-09T13:31:46;21.50;1.00
37956;DHT22;23776;51.592;7.180;2022-09-09T13:34:30;20.90;1.00
37956;DHT22;23776;51.592;7.180;2022-09-09T13:37:01;19.90;99.90
37956;DHT22;23776;51.592;7.180;2022-09-09T13:39:28;18.80;99.90
37956;DHT22;23776;51.592;7.180;2022-09-09T13:41:53;18.10;1.00
37956;DHT22;23776;51.592;7.180;2022-09-09T13:44:31;17.30;47.80
37956;DHT22;23776;51.592;7.180;2022-09-09T13:47:01;17.00;74.20
37956;DHT22;23776;51.592;7.180;2022-09-09T13:49:29;17.00;81.30
37956;DHT22;23776;51.592;7.180;2022-09-09T13:52:13;17.00;90.90
37956;DHT22;23776;51.592;7.180;2022-09-09T13:54:39;17.00;92.50
37956;DHT22;23776;51.592;7.180;2022-09-09T13:57:12;16.90;92.20
37956;DHT22;23776;51.592;7.180;2022-09-09T13:59:39;17.00;92.20
37956;DHT22;23776;51.592;7.180;2022-09-09T14:02:06;17.20;92.00
37956;DHT22;23776;51.592;7.180;2022-09-09T14:04:32;17.20;92.80
37956;DHT22;23776;51.592;7.180;2022-09-09T14:06:57;17.50;90.30
37956;DHT22;23776;51.592;7.180;2022-09-09T14:09:23;17.60;87.40
37956;DHT22;23776;51.592;7.180;2022-09-09T14:11:49;17.70;80.90
37956;DHT22;23776;51.592;7.180;2022-09-09T14:14:14;17.80;81.50
37956;DHT22;23776;51.592;7.180;2022-09-09T14:16:40;17.90;79.00
37956;DHT22;23776;51.592;7.180;2022-09-09T14:19:07;18.10;78.70
37956;DHT22;23776;51.592;7.180;2022-09-09T14:21:33;18.50;78.40
37956;DHT22;23776;51.592;7.180;2022-09-09T14:23:58;19.00;75.00
37956;DHT22;23776;51.592;7.180;2022-09-09T14:26:24;20.00;49.00
37956;DHT22;23776;51.592;7.180;2022-09-09T14:28:51;21.00;17.40
37956;DHT22;23776;51.592;7.180;2022-09-09T14:31:17;21.90;1.00
37956;DHT22;23776;51.592;7.180;2022-09-09T14:33:44;22.50;1.00
37956;DHT22;23776;51.592;7.180;2022-09-09T14:36:11;23.40;99.90
37956;DHT22;23776;51.592;7.180;2022-09-09T14:38:37;24.00;99.90
37956;DHT22;23776;51.592;7.180;2022-09-09T14:41:10;23.80;12.80
37956;DHT22;23776;51.592;7.180;2022-09-09T14:43:38;23.40;99.90
37956;DHT22;23776;51.592;7.180;2022-09-09T14:46:08;23.00;99.90
37956;DHT22;23776;51.592;7.180;2022-09-09T14:48:35;22.90;1.00
37956;DHT22;23776;51.592;7.180;2022-09-09T14:51:21;22.80;99.90
37956;DHT22;23776;51.592;7.180;2022-09-09T14:53:48;22.50;99.90
37956;DHT22;23776;51.592;7.180;2022-09-09T14:56:16;22.10;99.90
37956;DHT22;23776;51.592;7.180;2022-09-09T14:58:42;21.60;99.90
37956;DHT22;23776;51.592;7.180;2022-09-09T15:01:11;21.00;1.00
37956;DHT22;23776;51.592;7.180;2022-09-09T15:03:41;20.60;1.00
37956;DHT22;23776;51.592;7.180;2022-09-09T15:06:11;20.20;1.00
37956;DHT22;23776;51.592;7.180;2022-09-09T15:08:39;19.70;1.00
37956;DHT22;23776;51.592;7.180;2022-09-09T15:11:06;19.50;10.30
37956;DHT22;23776;51.592;7.180;2022-09-09T15:13:35;19.30;22.30
37956;DHT22;23776;51.592;7.180;2022-09-09T15:16:07;19.10;24.20
37956;DHT22;23776;51.592;7.180;2022-09-09T15:18:33;19.00;34.50
37956;DHT22;23776;51.592;7.180;2022-09-09T15:20:59;18.90;44.20
37956;DHT22;23776;51.592;7.180;2022-09-09T15:23:27;18.90;47.40
37956;DHT22;23776;51.592;7.180;2022-09-09T15:25:56;18.60;52.20
37956;DHT22;23776;51.592;7.180;2022-09-09T15:28:22;18.20;68.00
37956;DHT22;23776;51.592;7.180;2022-09-09T15:30:49;17.90;84.90
37956;DHT22;23776;51.592;7.180;2022-09-09T15:33:15;17.40;67.50
37956;DHT22;23776;51.592;7.180;2022-09-09T15:35:41;17.10;73.90
37956;DHT22;23776;51.592;7.180;2022-09-09T15:38:06;16.90;80.30
37956;DHT22;23776;51.592;7.180;2022-09-09T15:40:32;16.90;82.00
37956;DHT22;23776;51.592;7.180;2022-09-09T15:42:58;16.60;71.60
37956;DHT22;23776;51.592;7.180;2022-09-09T15:45:24;16.40;77.00
37956;DHT22;23776;51.592;7.180;2022-09-09T15:47:50;16.40;83.80
37956;DHT22;23776;51.592;7.180;2022-09-09T15:50:15;16.40;80.10
37956;DHT22;23776;51.592;7.180;2022-09-09T15:52:41;16.40;80.60
37956;DHT22;23776;51.592;7.180;2022-09-09T15:55:07;16.40;83.50
37956;DHT22;23776;51.592;7.180;2022-09-09T15:57:35;16.60;91.30
37956;DHT22;23776;51.592;7.180;2022-09-09T16:00:02;16.70;92.00
37956;DHT22;23776;51.592;7.180;2022-09-09T16:02:29;16.70;90.70
37956;DHT22;23776;51.592;7.180;2022-09-09T16:04:55;16.70;83.80
37956;DHT22;23776;51.592;7.180;2022-09-09T16:07:22;16.60;84.00
37956;DHT22;23776;51.592;7.180;2022-09-09T16:09:48;16.60;90.10
37956;DHT22;23776;51.592;7.180;2022-09-09T16:12:17;16.60;90.60
37956;DHT22;23776;51.592;7.180;2022-09-09T16:14:42;16.70;92.30
37956;DHT22;23776;51.592;7.180;2022-09-09T16:17:08;16.70;92.10
37956;DHT22;23776;51.592;7.180;2022-09-09T16:19:34;16.80;92.40
37956;DHT22;23776;51.592;7.180;2022-09-09T16:22:00;16.80;92.50
37956;DHT22;23776;51.592;7.180;2022-09-09T16:24:26;17.70;93.30
37956;DHT22;23776;51.592;7.180;2022-09-09T16:26:53;18.90;80.40
37956;DHT22;23776;51.592;7.180;2022-09-09T16:29:20;19.50;25.60
37956;DHT22;23776;51.592;7.180;2022-09-09T16:31:47;19.40;1.00
37956;DHT22;23776;51.592;7.180;2022-09-09T16:34:13;19.30;4.10
37956;DHT22;23776;51.592;7.180;2022-09-09T16:36:41;19.30;20.20
37956;DHT22;23776;51.592;7.180;2022-09-09T16:39:08;19.30;16.00
37956;DHT22;23776;51.592;7.180;2022-09-09T16:41:35;19.10;17.20
37956;DHT22;23776;51.592;7.180;2022-09-09T16:44:04;19.00;25.80
37956;DHT22;23776;51.592;7.180;2022-09-09T16:46:32;18.80;27.40
37956;DHT22;23776;51.592;7.180;2022-09-09T16:49:00;18.60;44.30
37956;DHT22;23776;51.592;7.180;2022-09-09T16:51:31;18.40;47.30
37956;DHT22;23776;51.592;7.180;2022-09-09T16:54:00;18.20;54.30
37956;DHT22;23776;51.592;7.180;2022-09-09T16:56:29;18.10;57.30
37956;DHT22;23776;51.592;7.180;2022-09-09T16:59:03;18.00;64.50
37956;DHT22;23776;51.592;7.180;2022-09-09T17:01:31;17.90;66.80
37956;DHT22;23776;51.592;7.180;2022-09-09T17:04:00;17.90;68.10
37956;DHT22;23776;51.592;7.180;2022-09-09T17:06:27;17.80;69.00
37956;DHT22;23776;51.592;7.180;2022-09-09T17:08:55;17.70;66.80
37956;DHT22;23776;51.592;7.180;2022-09-09T17:11:22;17.60;67.90
37956;DHT22;23776;51.592;7.180;2022-09-09T17:13:49;17.50;66.80
37956;DHT22;23776;51.592;7.180;2022-09-09T17:16:17;17.40;71.00
37956;DHT22;23776;51.592;7.180;2022-09-09T17:18:43;17.40;72.40
37956;DHT22;23776;51.592;7.180;2022-09-09T17:21:12;17.30;75.40
37956;DHT22;23776;51.592;7.180;2022-09-09T17:23:40;17.30;73.50
37956;DHT22;23776;51.592;7.180;2022-09-09T17:26:09;17.20;71.10
37956;DHT22;23776;51.592;7.180;2022-09-09T17:28:36;17.20;74.60
37956;DHT22;23776;51.592;7.180;2022-09-09T17:31:02;17.10;77.90
37956;DHT22;23776;51.592;7.180;2022-09-09T17:33:30;17.00;76.70
37956;DHT22;23776;51.592;7.180;2022-09-09T17:36:01;17.00;76.10
37956;DHT22;23776;51.592;7.180;2022-09-09T17:38:28;17.00;76.30
37956;DHT22;23776;51.592;7.180;2022-09-09T17:41:05;17.00;75.60
37956;DHT22;23776;51.592;7.180;2022-09-09T17:43:31;16.90;78.60
37956;DHT22;23776;51.592;7.180;2022-09-09T17:46:08;16.90;81.00
37956;DHT22;23776;51.592;7.180;2022-09-09T17:48:34;16.80;81.00
37956;DHT22;23776;51.592;7.180;2022-09-09T17:51:04;16.80;83.20
37956;DHT22;23776;51.592;7.180;2022-09-09T17:53:31;16.80;87.70
37956;DHT22;23776;51.592;7.180;2022-09-09T17:56:02;16.80;82.70